createdAt,value
2023-02-06T00:01:33.944Z,4.64
2023-02-06T00:04:01.180Z,4.77
2023-02-06T00:06:28.478Z,4.53
2023-02-06T00:08:55.801Z,4.67
2023-02-06T00:11:23.397Z,4.83
2023-02-06T00:13:50.356Z,4.51
2023-02-06T00:16:22.832Z,4.82
2023-02-06T00:18:50.979Z,4.54
2023-02-06T00:21:22.211Z,4.56
2023-02-06T00:23:50.220Z,4.84
2023-02-06T00:26:18.284Z,5.00
2023-02-06T00:28:46.469Z,4.65
2023-02-06T00:31:14.465Z,4.59
2023-02-06T00:33:41.934Z,4.53
2023-02-06T00:36:09.937Z,4.53
2023-02-06T00:38:39.232Z,4.99
2023-02-06T00:41:06.171Z,4.99
2023-02-06T00:43:33.657Z,4.75
2023-02-06T00:46:04.773Z,4.58
2023-02-06T00:48:31.626Z,4.74
2023-02-06T00:50:58.737Z,4.70
2023-02-06T00:53:25.952Z,4.66
2023-02-06T00:55:52.960Z,4.57
2023-02-06T00:58:20.183Z,4.55
2023-02-06T01:00:49.735Z,4.56
2023-02-06T01:03:16.869Z,4.58
2023-02-06T01:05:44.010Z,5.00
2023-02-06T01:08:11.133Z,4.51
2023-02-06T01:10:42.207Z,4.76
2023-02-06T01:13:09.869Z,4.74
2023-02-06T01:15:38.694Z,4.83
2023-02-06T01:18:06.146Z,4.58
2023-02-06T01:20:33.767Z,4.79
2023-02-06T01:23:00.953Z,4.62
2023-02-06T01:25:28.376Z,4.78
2023-02-06T01:27:55.281Z,4.82
2023-02-06T01:30:22.587Z,4.70
2023-02-06T01:32:52.642Z,4.73
2023-02-06T01:35:22.111Z,4.61
2023-02-06T01:37:49.452Z,4.68
2023-02-06T01:40:17.503Z,4.81
2023-02-06T01:42:44.978Z,4.80
2023-02-06T01:45:36.106Z,5.04
2023-02-06T01:48:13.734Z,4.97
2023-02-06T01:50:47.693Z,5.05
2023-02-06T01:53:16.950Z,4.71
2023-02-06T01:55:47.229Z,4.76
2023-02-06T01:58:17.804Z,5.01
2023-02-06T02:00:45.717Z,4.84
2023-02-06T02:03:13.151Z,4.82
2023-02-06T02:05:42.005Z,4.85
2023-02-06T02:08:18.767Z,5.00
2023-02-06T02:10:46.054Z,5.02
2023-02-06T02:13:13.156Z,4.80
2023-02-06T02:15:52.885Z,4.66
2023-02-06T02:18:45.842Z,4.91
2023-02-06T02:21:46.013Z,4.85
2023-02-06T02:24:26.794Z,4.96
2023-02-06T02:27:11.674Z,5.02
2023-02-06T02:30:16.203Z,4.96
2023-02-06T02:33:20.721Z,4.93
2023-02-06T02:35:54.334Z,4.86
2023-02-06T02:38:35.621Z,4.83
2023-02-06T02:41:16.332Z,4.60
2023-02-06T02:44:05.084Z,4.46
2023-02-06T02:46:43.473Z,4.67
2023-02-06T02:49:25.506Z,4.53
2023-02-06T02:51:53.519Z,4.72
2023-02-06T02:54:20.963Z,4.85
2023-02-06T02:56:48.782Z,4.70
2023-02-06T02:59:30.319Z,4.55
2023-02-06T03:02:20.120Z,4.78
2023-02-06T03:05:00.530Z,4.46
2023-02-06T03:07:37.098Z,4.44
2023-02-06T03:10:31.057Z,4.78
2023-02-06T03:13:21.382Z,4.70
2023-02-06T03:16:17.275Z,4.53
2023-02-06T03:18:52.101Z,4.33
2023-02-06T03:21:22.119Z,4.32
2023-02-06T03:23:52.480Z,4.41
2023-02-06T03:26:24.808Z,4.47
2023-02-06T03:29:02.311Z,4.45
2023-02-06T03:31:45.606Z,4.27
2023-02-06T03:34:37.948Z,4.31
2023-02-06T03:37:04.945Z,4.70
2023-02-06T03:39:32.119Z,4.42
2023-02-06T03:42:00.163Z,4.35
2023-02-06T03:44:32.060Z,4.32
2023-02-06T03:47:00.602Z,4.43
2023-02-06T03:49:29.188Z,4.50
2023-02-06T03:51:59.217Z,4.51
2023-02-06T03:54:27.776Z,4.21
2023-02-06T03:56:56.910Z,4.59
2023-02-06T03:59:24.388Z,4.43
2023-02-06T04:01:55.494Z,4.28
2023-02-06T04:04:29.639Z,4.19
2023-02-06T04:07:07.576Z,4.31
2023-02-06T04:09:34.527Z,4.19
2023-02-06T04:12:05.429Z,4.23
2023-02-06T04:14:32.610Z,4.49
2023-02-06T04:16:59.560Z,4.23
2023-02-06T04:19:29.996Z,4.11
2023-02-06T04:21:57.018Z,4.08
2023-02-06T04:24:24.460Z,4.14
2023-02-06T04:26:51.657Z,4.36
2023-02-06T04:29:18.691Z,3.93
2023-02-06T04:31:45.739Z,4.18
2023-02-06T04:34:12.762Z,3.94
2023-02-06T04:36:39.769Z,4.37
2023-02-06T04:39:07.528Z,4.13
2023-02-06T04:41:34.925Z,4.17
2023-02-06T04:44:02.169Z,4.16
2023-02-06T04:46:29.263Z,3.96
2023-02-06T04:48:56.190Z,3.94
2023-02-06T04:51:23.430Z,4.36
2023-02-06T04:53:50.895Z,4.17
2023-02-06T04:56:17.826Z,4.14
2023-02-06T04:58:44.876Z,4.34
2023-02-06T05:01:16.927Z,4.19
2023-02-06T05:03:44.228Z,4.31
2023-02-06T05:06:12.567Z,4.16
2023-02-06T05:08:39.716Z,4.36
2023-02-06T05:11:07.311Z,4.52
2023-02-06T05:13:34.720Z,4.32
2023-02-06T05:16:13.386Z,4.26
2023-02-06T05:18:41.217Z,4.51
2023-02-06T05:21:08.480Z,4.26
2023-02-06T05:23:35.295Z,4.20
2023-02-06T05:26:02.899Z,4.49
2023-02-06T05:28:30.317Z,4.13
2023-02-06T05:30:57.840Z,4.22
2023-02-06T05:33:26.406Z,4.39
2023-02-06T05:35:53.575Z,4.46
2023-02-06T05:38:20.536Z,4.12
2023-02-06T05:40:51.885Z,4.25
2023-02-06T05:43:18.692Z,4.38
2023-02-06T05:45:45.582Z,3.98
2023-02-06T05:48:12.407Z,4.13
2023-02-06T05:50:39.284Z,4.06
2023-02-06T05:53:08.637Z,4.17
2023-02-06T05:55:35.829Z,3.97
2023-02-06T05:58:04.443Z,4.35
2023-02-06T06:00:33.136Z,4.31
2023-02-06T06:03:00.273Z,4.36
2023-02-06T06:05:27.496Z,4.22
2023-02-06T06:07:54.532Z,4.08
2023-02-06T06:10:21.538Z,4.28
2023-02-06T06:12:48.624Z,3.87
2023-02-06T06:15:15.507Z,3.86
2023-02-06T06:17:42.327Z,4.22
2023-02-06T06:20:10.882Z,4.09
2023-02-06T06:22:37.813Z,3.87
2023-02-06T06:25:06.728Z,3.96
2023-02-06T06:27:33.980Z,4.16
2023-02-06T06:30:01.447Z,4.13
2023-02-06T06:32:29.102Z,3.90
2023-02-06T06:34:56.185Z,3.95
2023-02-06T06:37:23.127Z,3.92
2023-02-06T06:39:50.346Z,3.97
2023-02-06T06:42:18.942Z,3.59
2023-02-06T06:44:45.698Z,3.96
2023-02-06T06:47:12.656Z,3.65
2023-02-06T06:49:39.760Z,3.62
2023-02-06T06:52:13.416Z,3.59
2023-02-06T06:54:47.229Z,3.87
2023-02-06T06:57:16.355Z,3.48
2023-02-06T06:59:43.443Z,3.66
2023-02-06T07:02:11.415Z,3.56
2023-02-06T07:04:38.582Z,3.71
2023-02-06T07:07:07.471Z,3.62
2023-02-06T07:09:34.481Z,3.73
2023-02-06T07:12:01.380Z,3.66
2023-02-06T07:14:28.362Z,3.35
2023-02-06T07:16:56.640Z,3.52
2023-02-06T07:19:23.442Z,3.24
2023-02-06T07:21:51.256Z,3.45
2023-02-06T07:24:18.102Z,3.62
2023-02-06T07:26:45.487Z,3.39
2023-02-06T07:29:15.027Z,3.29
2023-02-06T07:31:41.914Z,3.48
2023-02-06T07:34:09.506Z,3.77
2023-02-06T07:36:36.732Z,3.54
2023-02-06T07:39:04.578Z,3.78
2023-02-06T07:41:33.304Z,3.49
2023-02-06T07:44:00.493Z,3.57
2023-02-06T07:46:27.286Z,3.77
2023-02-06T07:48:54.468Z,3.52
2023-02-06T07:51:23.291Z,3.54
2023-02-06T07:53:50.759Z,3.82
2023-02-06T07:56:19.878Z,3.95
2023-02-06T07:58:51.274Z,3.91
2023-02-06T08:01:18.154Z,3.89
2023-02-06T08:03:45.344Z,3.83
2023-02-06T08:06:15.030Z,4.00
2023-02-06T08:08:43.444Z,3.83
2023-02-06T08:11:16.605Z,4.05
2023-02-06T08:13:44.401Z,4.22
2023-02-06T08:16:16.793Z,4.27
2023-02-06T08:18:44.059Z,4.23
2023-02-06T08:21:14.338Z,4.11
2023-02-06T08:23:43.367Z,3.91
2023-02-06T08:26:13.245Z,4.13
2023-02-06T08:28:42.355Z,3.96
2023-02-06T08:31:11.948Z,4.10
2023-02-06T08:33:39.095Z,4.30
2023-02-06T08:36:06.969Z,4.05
2023-02-06T08:38:34.159Z,4.24
2023-02-06T08:41:01.028Z,4.24
2023-02-06T08:43:27.998Z,4.36
2023-02-06T08:45:59.717Z,4.20
2023-02-06T08:48:27.123Z,4.21
2023-02-06T08:51:06.194Z,4.54
2023-02-06T08:53:33.730Z,4.40
2023-02-06T08:56:02.508Z,4.51
2023-02-06T08:58:29.278Z,4.75
2023-02-06T09:00:56.787Z,4.80
2023-02-06T09:03:24.052Z,4.51
2023-02-06T09:05:52.670Z,4.81
2023-02-06T09:08:20.900Z,4.58
2023-02-06T09:10:47.638Z,4.65
2023-02-06T09:13:14.475Z,4.51
2023-02-06T09:15:43.255Z,4.70
2023-02-06T09:18:10.996Z,4.59
2023-02-06T09:20:37.736Z,4.68
2023-02-06T09:23:04.917Z,4.65
2023-02-06T09:25:32.264Z,4.71
2023-02-06T09:27:59.240Z,4.76
2023-02-06T09:30:26.430Z,4.78
2023-02-06T09:32:53.194Z,4.67
2023-02-06T09:35:20.336Z,4.65
2023-02-06T09:37:50.609Z,4.88
2023-02-06T09:40:24.722Z,4.84
2023-02-06T09:42:53.558Z,5.02
2023-02-06T09:45:23.854Z,4.97
2023-02-06T09:47:55.141Z,4.86
2023-02-06T09:50:41.525Z,4.87
2023-02-06T09:53:15.854Z,5.03
2023-02-06T09:55:50.791Z,4.94
2023-02-06T09:58:45.691Z,5.08
2023-02-06T10:01:28.454Z,4.97
2023-02-06T10:03:58.075Z,5.31
2023-02-06T10:06:51.827Z,5.05
2023-02-06T10:09:36.319Z,5.44
2023-02-06T10:12:14.914Z,5.36
2023-02-06T10:14:47.106Z,5.42
2023-02-06T10:17:28.162Z,5.20
2023-02-06T10:20:15.985Z,5.54
2023-02-06T10:23:10.414Z,5.59
2023-02-06T10:25:44.255Z,5.52
2023-02-06T10:28:29.971Z,5.46
2023-02-06T10:31:05.508Z,5.27
2023-02-06T10:33:42.219Z,5.53
2023-02-06T10:36:18.967Z,5.59
2023-02-06T10:39:08.038Z,5.58
2023-02-06T10:41:51.508Z,5.45
2023-02-06T10:44:34.692Z,5.52
2023-02-06T10:47:01.823Z,5.46
2023-02-06T10:49:39.758Z,5.40
2023-02-06T10:52:26.434Z,5.72
2023-02-06T10:55:01.412Z,5.46
2023-02-06T10:57:29.042Z,5.42
2023-02-06T11:00:01.950Z,5.26
2023-02-06T11:02:33.503Z,5.22
2023-02-06T11:05:16.895Z,5.37
2023-02-06T11:08:07.604Z,5.50
2023-02-06T11:10:34.855Z,5.49
2023-02-06T11:13:22.040Z,5.53
2023-02-06T11:16:02.320Z,5.64
2023-02-06T11:18:36.704Z,5.76
2023-02-06T11:21:04.329Z,5.78
2023-02-06T11:23:34.722Z,5.58
2023-02-06T11:26:18.908Z,5.70
2023-02-06T11:28:52.551Z,5.78
2023-02-06T11:31:40.723Z,5.78
2023-02-06T11:34:21.709Z,5.66
2023-02-06T11:36:53.384Z,5.71
2023-02-06T11:39:37.863Z,5.57
2023-02-06T11:42:17.774Z,5.76
2023-02-06T11:44:47.956Z,5.62
2023-02-06T11:47:32.172Z,5.52
2023-02-06T11:50:14.199Z,5.84
2023-02-06T11:52:46.925Z,5.55
2023-02-06T11:55:27.315Z,5.66
2023-02-06T11:58:12.688Z,5.85
2023-02-06T12:00:59.046Z,5.55
2023-02-06T12:03:32.644Z,5.79
2023-02-06T12:06:12.917Z,6.06
2023-02-06T12:08:44.120Z,5.89
2023-02-06T12:11:19.295Z,6.02
2023-02-06T12:13:52.906Z,5.91
2023-02-06T12:16:20.866Z,5.84
2023-02-06T12:18:53.890Z,5.87
2023-02-06T12:21:30.512Z,6.00
2023-02-06T12:24:02.317Z,5.93
2023-02-06T12:26:31.888Z,5.69
2023-02-06T12:29:07.146Z,5.76
2023-02-06T12:32:09.438Z,6.13
2023-02-06T12:35:11.907Z,5.97
2023-02-06T12:37:50.900Z,6.24
2023-02-06T12:40:47.980Z,5.85
2023-02-06T12:43:17.255Z,5.97
2023-02-06T12:46:00.124Z,6.16
2023-02-06T12:48:55.245Z,6.21
2023-02-06T12:51:48.178Z,6.24
2023-02-06T12:54:20.229Z,5.89
2023-02-06T12:56:51.116Z,6.16
2023-02-06T12:59:58.275Z,6.23
2023-02-06T13:02:40.850Z,6.28
2023-02-06T13:05:36.502Z,5.95
2023-02-06T13:08:20.523Z,6.29
2023-02-06T13:11:00.001Z,6.13
2023-02-06T13:13:33.615Z,6.34
2023-02-06T13:16:00.708Z,6.36
2023-02-06T13:18:52.721Z,6.55
2023-02-06T13:21:24.240Z,6.49
2023-02-06T13:24:03.665Z,6.47
2023-02-06T13:26:53.736Z,6.46
2023-02-06T13:29:46.901Z,6.47
2023-02-06T13:32:18.713Z,6.39
2023-02-06T13:35:07.027Z,6.42
2023-02-06T13:37:47.870Z,6.36
2023-02-06T13:40:24.061Z,6.35
2023-02-06T13:42:53.027Z,6.17
2023-02-06T13:45:43.080Z,6.23
2023-02-06T13:48:25.243Z,6.43
2023-02-06T13:51:25.033Z,6.44
2023-02-06T13:53:57.772Z,6.49
2023-02-06T13:57:02.344Z,6.49
2023-02-06T13:59:34.931Z,6.44
2023-02-06T14:02:13.799Z,6.36
2023-02-06T14:04:43.925Z,6.50
2023-02-06T14:07:31.336Z,6.43
2023-02-06T14:10:34.818Z,6.47
2023-02-06T14:13:32.532Z,6.29
2023-02-06T14:16:08.458Z,6.49
2023-02-06T14:18:48.882Z,6.36
2023-02-06T14:21:25.120Z,6.44
2023-02-06T14:24:00.035Z,6.36
2023-02-06T14:26:51.660Z,6.31
2023-02-06T14:29:35.833Z,6.39
2023-02-06T14:32:30.693Z,6.38
2023-02-06T14:35:16.250Z,6.32
2023-02-06T14:38:06.098Z,6.38
2023-02-06T14:40:42.464Z,6.43
2023-02-06T14:43:17.614Z,6.48
2023-02-06T14:46:05.622Z,6.31
2023-02-06T14:48:54.255Z,6.44
2023-02-06T14:51:29.537Z,6.08
2023-02-06T14:54:03.568Z,6.10
2023-02-06T14:56:38.813Z,6.25
2023-02-06T14:59:18.501Z,6.24
2023-02-06T15:01:49.190Z,6.10
2023-02-06T15:04:28.564Z,5.96
2023-02-06T15:06:59.324Z,6.33
2023-02-06T15:09:33.758Z,5.99
2023-02-06T15:12:04.879Z,6.09
2023-02-06T15:14:34.342Z,6.17
2023-02-06T15:17:03.050Z,6.01
2023-02-06T15:19:35.715Z,6.23
2023-02-06T15:22:11.472Z,6.28
2023-02-06T15:24:58.044Z,6.15
2023-02-06T15:27:31.613Z,5.94
2023-02-06T15:29:59.684Z,5.92
2023-02-06T15:32:35.016Z,5.81
2023-02-06T15:35:02.623Z,5.94
2023-02-06T15:37:35.397Z,5.93
2023-02-06T15:40:14.366Z,5.86
2023-02-06T15:42:41.575Z,5.78
2023-02-06T15:45:18.324Z,6.04
2023-02-06T15:47:46.592Z,5.87
2023-02-06T15:50:19.196Z,5.70
2023-02-06T15:52:47.922Z,5.66
2023-02-06T15:55:29.488Z,5.91
2023-02-06T15:57:58.738Z,5.45
2023-02-06T16:00:34.484Z,5.60
2023-02-06T16:03:07.963Z,5.60
2023-02-06T16:05:40.883Z,5.77
2023-02-06T16:08:21.416Z,5.33
2023-02-06T16:11:40.657Z,5.39
2023-02-06T16:14:17.071Z,5.50
2023-02-06T16:17:24.541Z,5.35
2023-02-06T16:19:58.560Z,5.09
2023-02-06T16:22:34.484Z,5.09
2023-02-06T16:25:23.577Z,5.21
2023-02-06T16:27:51.429Z,5.10
2023-02-06T16:30:30.553Z,5.23
2023-02-06T16:33:00.348Z,4.97
2023-02-06T16:35:28.661Z,4.98
2023-02-06T16:37:55.858Z,5.21
2023-02-06T16:40:23.877Z,4.91
2023-02-06T16:42:53.652Z,5.28
2023-02-06T16:45:23.862Z,5.18
2023-02-06T16:47:51.592Z,5.25
2023-02-06T16:50:18.682Z,5.01
2023-02-06T16:52:54.574Z,5.16
2023-02-06T16:55:25.468Z,4.83
2023-02-06T16:58:01.914Z,4.97
2023-02-06T17:00:31.708Z,4.76
2023-02-06T17:02:59.845Z,4.70
2023-02-06T17:05:28.422Z,4.61
2023-02-06T17:07:55.585Z,4.76
2023-02-06T17:10:27.316Z,4.51
2023-02-06T17:12:54.816Z,4.39
2023-02-06T17:15:21.731Z,4.60
2023-02-06T17:17:48.951Z,4.34
2023-02-06T17:20:31.778Z,4.22
2023-02-06T17:22:59.150Z,4.53
2023-02-06T17:25:26.570Z,4.32
2023-02-06T17:27:54.086Z,4.13
2023-02-06T17:30:24.719Z,4.12
2023-02-06T17:32:54.513Z,4.10
2023-02-06T17:35:21.688Z,4.05
2023-02-06T17:37:51.488Z,4.06
2023-02-06T17:40:27.884Z,3.77
2023-02-06T17:42:56.649Z,3.74
2023-02-06T17:45:23.919Z,3.81
2023-02-06T17:47:51.327Z,4.06
2023-02-06T17:50:23.928Z,3.91
2023-02-06T17:52:53.436Z,3.69
2023-02-06T17:55:20.357Z,3.93
2023-02-06T17:57:47.697Z,3.68
2023-02-06T18:00:17.718Z,3.71
2023-02-06T18:02:45.159Z,3.91
2023-02-06T18:05:12.458Z,3.60
2023-02-06T18:07:40.428Z,3.80
2023-02-06T18:10:08.767Z,3.74
2023-02-06T18:12:39.368Z,3.60
2023-02-06T18:15:06.952Z,3.52
2023-02-06T18:17:34.626Z,3.58
2023-02-06T18:20:02.119Z,3.36
2023-02-06T18:22:29.389Z,3.38
2023-02-06T18:24:56.607Z,3.25
2023-02-06T18:27:23.848Z,3.29
2023-02-06T18:29:55.276Z,3.08
2023-02-06T18:32:23.503Z,3.35
2023-02-06T18:34:50.789Z,3.41
2023-02-06T18:37:18.092Z,3.45
2023-02-06T18:39:45.620Z,3.05
2023-02-06T18:42:31.141Z,3.16
2023-02-06T18:45:02.101Z,3.08
2023-02-06T18:47:30.894Z,2.91
2023-02-06T18:49:58.048Z,3.15
2023-02-06T18:52:25.118Z,3.11
2023-02-06T18:54:52.904Z,2.70
2023-02-06T18:57:21.132Z,2.71
2023-02-06T18:59:49.488Z,2.89
2023-02-06T19:02:16.935Z,2.80
2023-02-06T19:04:43.978Z,2.97
2023-02-06T19:07:12.667Z,2.99
2023-02-06T19:09:40.170Z,2.67
2023-02-06T19:12:07.317Z,2.61
2023-02-06T19:14:34.497Z,2.43
2023-02-06T19:17:01.662Z,2.51
2023-02-06T19:19:28.816Z,2.23
2023-02-06T19:21:57.635Z,2.41
2023-02-06T19:24:26.454Z,2.21
2023-02-06T19:26:53.393Z,2.34
2023-02-06T19:29:35.148Z,2.18
2023-02-06T19:32:05.758Z,2.52
2023-02-06T19:34:36.338Z,2.03
2023-02-06T19:37:09.539Z,1.98
2023-02-06T19:39:38.152Z,2.08
2023-02-06T19:42:06.819Z,2.25
2023-02-06T19:44:34.971Z,1.85
2023-02-06T19:47:04.707Z,1.81
2023-02-06T19:49:32.154Z,1.76
2023-02-06T19:52:00.224Z,1.77
2023-02-06T19:54:31.470Z,2.20
2023-02-06T19:57:00.734Z,1.67
2023-02-06T19:59:29.434Z,2.05
2023-02-06T20:01:57.503Z,1.98
2023-02-06T20:04:28.285Z,1.80
2023-02-06T20:07:04.333Z,1.75
2023-02-06T20:09:36.703Z,1.58
2023-02-06T20:14:55.593Z,1.41
2023-02-06T20:17:24.097Z,1.43
2023-02-06T20:20:01.618Z,1.35
2023-02-06T20:22:28.979Z,1.74
2023-02-06T20:24:55.970Z,1.72
2023-02-06T20:27:23.118Z,1.38
2023-02-06T20:29:52.736Z,1.37
2023-02-06T20:32:20.007Z,1.52
2023-02-06T20:34:50.640Z,1.17
2023-02-06T20:37:18.782Z,1.28
2023-02-06T20:39:45.864Z,1.19
2023-02-06T20:42:12.804Z,1.19
2023-02-06T20:44:40.115Z,1.20
2023-02-06T20:47:07.245Z,1.12
2023-02-06T20:49:39.326Z,1.54
2023-02-06T20:52:08.593Z,1.22
2023-02-06T20:54:35.532Z,1.12
2023-02-06T20:57:02.572Z,1.16
2023-02-06T20:59:29.560Z,1.20
2023-02-06T21:01:58.097Z,1.13
2023-02-06T21:04:25.750Z,1.20
2023-02-06T21:06:52.955Z,1.39
2023-02-06T21:09:19.686Z,1.35
2023-02-06T21:11:50.194Z,1.40
2023-02-06T21:14:18.255Z,1.36
2023-02-06T21:16:45.552Z,1.31
2023-02-06T21:19:15.147Z,1.31
2023-02-06T21:21:45.605Z,1.29
2023-02-06T21:24:15.597Z,1.24
2023-02-06T21:26:43.109Z,1.21
2023-02-06T21:29:12.902Z,1.19
2023-02-06T21:31:41.030Z,1.16
2023-02-06T21:34:12.564Z,1.10
2023-02-06T21:36:40.780Z,1.12
2023-02-06T21:39:08.381Z,1.09
2023-02-06T21:41:36.493Z,1.05
2023-02-06T21:44:03.531Z,0.93
2023-02-06T21:46:34.689Z,0.83
2023-02-06T21:49:02.926Z,0.92
2023-02-06T21:51:29.827Z,0.89
2023-02-06T21:53:56.991Z,0.91
2023-02-06T21:56:28.404Z,0.90
2023-02-06T21:58:55.693Z,0.87
2023-02-06T22:01:26.670Z,0.92
2023-02-06T22:03:53.997Z,0.91
2023-02-06T22:06:21.571Z,0.76
2023-02-06T22:08:53.636Z,0.76
2023-02-06T22:11:23.730Z,0.54
2023-02-06T22:13:51.698Z,0.81
2023-02-06T22:16:22.367Z,0.84
2023-02-06T22:18:49.839Z,0.77
2023-02-06T22:21:19.524Z,0.68
2023-02-06T22:23:48.398Z,0.68
2023-02-06T22:26:18.692Z,0.68
2023-02-06T22:28:46.860Z,0.73
2023-02-06T22:31:23.436Z,0.69
2023-02-06T22:33:51.564Z,0.64
2023-02-06T22:36:26.297Z,0.62
2023-02-06T22:38:59.935Z,0.68
2023-02-06T22:41:26.856Z,0.71
2023-02-06T22:43:53.724Z,0.72
2023-02-06T22:46:25.667Z,0.55
2023-02-06T22:48:52.963Z,0.61
2023-02-06T22:51:21.784Z,0.66
2023-02-06T22:53:49.192Z,0.63
2023-02-06T22:56:26.849Z,0.66
2023-02-06T22:58:56.848Z,0.63
2023-02-06T23:01:26.154Z,0.60
2023-02-06T23:03:54.384Z,0.35
2023-02-06T23:06:22.451Z,0.66
2023-02-06T23:08:50.583Z,0.63
2023-02-06T23:11:17.540Z,0.53
2023-02-06T23:13:45.552Z,0.54
2023-02-06T23:16:13.464Z,0.56
2023-02-06T23:18:40.213Z,0.56
2023-02-06T23:21:10.854Z,0.44
2023-02-06T23:23:38.936Z,0.48
2023-02-06T23:26:10.315Z,0.48
2023-02-06T23:28:38.293Z,0.40
2023-02-06T23:31:05.822Z,0.43
2023-02-06T23:33:32.773Z,0.36
2023-02-06T23:36:20.356Z,0.38
2023-02-06T23:38:49.994Z,0.35
2023-02-06T23:41:22.548Z,0.37
2023-02-06T23:43:58.642Z,0.37
2023-02-06T23:46:26.867Z,0.37
2023-02-06T23:48:53.913Z,0.32
2023-02-06T23:51:24.095Z,0.26
2023-02-06T23:53:51.428Z,0.24
2023-02-06T23:56:21.324Z,0.18
2023-02-06T23:58:48.697Z,0.19
